createdAt,value
2023-01-10T00:00:00.381Z,6.15
2023-01-10T00:02:44.616Z,5.93
2023-01-10T00:05:15.080Z,5.75
2023-01-10T00:07:46.597Z,6.07
2023-01-10T00:10:47.413Z,6.45
2023-01-10T00:16:59.843Z,6.65
2023-01-10T00:26:20.593Z,5.97
2023-01-10T00:29:07.482Z,6.13
2023-01-10T00:31:47.648Z,5.75
2023-01-10T00:34:47.076Z,6.03
2023-01-10T00:37:52.643Z,6.07
2023-01-10T00:41:12.190Z,6.13
2023-01-10T00:50:48.198Z,5.82
2023-01-10T00:59:51.031Z,5.93
2023-01-10T01:02:41.807Z,6.32
2023-01-10T01:05:56.275Z,6.10
2023-01-10T01:09:02.769Z,5.60
2023-01-10T01:15:08.903Z,5.70
2023-01-10T01:18:20.878Z,5.53
2023-01-10T01:21:22.835Z,5.70
2023-01-10T01:24:11.407Z,5.72
2023-01-10T01:26:45.962Z,5.80
2023-01-10T01:29:18.981Z,5.50
2023-01-10T01:31:52.832Z,5.97
2023-01-10T01:34:22.754Z,5.90
2023-01-10T01:36:57.131Z,5.72
2023-01-10T01:39:25.828Z,6.03
2023-01-10T01:42:05.238Z,5.85
2023-01-10T01:44:43.228Z,6.07
2023-01-10T01:47:25.382Z,6.43
2023-01-10T01:49:55.887Z,5.70
2023-01-10T01:52:29.107Z,5.53
2023-01-10T01:55:04.600Z,6.00
2023-01-10T01:57:49.117Z,6.50
2023-01-10T02:00:40.855Z,6.20
2023-01-10T02:03:25.484Z,5.65
2023-01-10T02:06:18.217Z,5.78
2023-01-10T02:09:13.024Z,6.18
2023-01-10T02:12:18.445Z,6.57
2023-01-10T02:15:54.462Z,5.88
2023-01-10T02:18:26.707Z,6.65
2023-01-10T02:22:21.885Z,6.22
2023-01-10T02:25:33.061Z,5.97
2023-01-10T02:28:58.501Z,7.00
2023-01-10T02:32:11.276Z,6.05
2023-01-10T02:35:12.075Z,6.20
2023-01-10T02:38:09.784Z,6.55
2023-01-10T02:41:04.399Z,6.13
2023-01-10T02:43:42.663Z,6.25
2023-01-10T02:46:23.615Z,6.32
2023-01-10T02:49:02.631Z,6.70
2023-01-10T02:52:01.420Z,5.97
2023-01-10T02:58:09.646Z,6.40
2023-01-10T03:00:56.067Z,6.10
2023-01-10T03:03:42.880Z,6.13
2023-01-10T03:06:36.129Z,6.65
2023-01-10T03:12:29.321Z,6.00
2023-01-10T03:15:13.203Z,6.72
2023-01-10T03:17:51.973Z,6.25
2023-01-10T03:20:25.824Z,6.72
2023-01-10T03:26:40.269Z,6.50
2023-01-10T03:29:21.325Z,6.43
2023-01-10T03:32:02.759Z,6.95
2023-01-10T03:34:51.441Z,6.50
2023-01-10T03:37:29.827Z,6.82
2023-01-10T03:40:25.904Z,6.40
2023-01-10T03:43:49.418Z,6.78
2023-01-10T03:46:50.132Z,6.20
2023-01-10T03:49:58.503Z,7.07
2023-01-10T03:52:40.663Z,6.78
2023-01-10T03:55:25.220Z,6.68
2023-01-10T03:58:08.737Z,6.10
2023-01-10T04:01:32.550Z,5.68
2023-01-10T04:04:20.760Z,5.20
2023-01-10T04:06:50.730Z,5.47
2023-01-10T04:09:35.644Z,5.38
2023-01-10T04:12:11.247Z,5.35
2023-01-10T04:14:41.647Z,5.60
2023-01-10T04:17:14.476Z,5.25
2023-01-10T04:19:53.224Z,5.82
2023-01-10T04:22:42.649Z,5.22
2023-01-10T04:25:19.503Z,5.22
2023-01-10T04:27:59.301Z,4.85
2023-01-10T04:30:39.108Z,4.80
2023-01-10T04:33:29.511Z,4.75
2023-01-10T04:36:03.757Z,5.45
2023-01-10T04:38:43.744Z,5.25
2023-01-10T04:41:21.100Z,5.10
2023-01-10T04:44:01.976Z,5.20
2023-01-10T04:46:37.098Z,4.88
2023-01-10T04:49:11.929Z,4.65
2023-01-10T04:51:40.650Z,4.50
2023-01-10T04:54:13.562Z,4.78
2023-01-10T04:56:52.482Z,4.28
2023-01-10T04:59:23.964Z,4.80
2023-01-10T05:01:54.526Z,4.00
2023-01-10T05:04:57.474Z,4.43
2023-01-10T05:07:27.342Z,3.80
2023-01-10T05:10:10.503Z,4.00
2023-01-10T05:12:40.327Z,4.05
2023-01-10T05:15:13.971Z,3.40
2023-01-10T05:17:42.542Z,3.80
2023-01-10T05:20:24.922Z,3.55
2023-01-10T05:23:08.608Z,3.88
2023-01-10T05:25:46.121Z,3.38
2023-01-10T05:28:22.803Z,3.60
2023-01-10T05:30:57.803Z,3.70
2023-01-10T05:33:30.044Z,3.25
2023-01-10T05:36:12.659Z,4.05
2023-01-10T05:38:45.248Z,3.58
2023-01-10T05:44:23.060Z,3.30
2023-01-10T05:47:08.351Z,3.20
2023-01-10T05:49:55.726Z,3.20
2023-01-10T05:52:58.975Z,3.30
2023-01-10T05:55:44.105Z,2.92
2023-01-10T05:59:27.311Z,2.97
2023-01-10T06:01:31.492Z,3.33
2023-01-10T06:04:37.839Z,3.40
2023-01-10T06:07:51.428Z,2.92
2023-01-10T06:11:08.175Z,3.13
2023-01-10T06:14:26.725Z,3.13
2023-01-10T06:17:44.879Z,3.05
2023-01-10T06:20:46.839Z,3.42
2023-01-10T06:27:31.300Z,2.80
2023-01-10T06:30:33.980Z,3.17
2023-01-10T06:33:36.536Z,3.20
2023-01-10T06:36:30.448Z,3.08
2023-01-10T06:38:59.338Z,3.45
2023-01-10T06:42:35.110Z,3.13
2023-01-10T06:45:58.908Z,2.50
2023-01-10T06:52:38.093Z,3.13
2023-01-10T06:55:10.510Z,3.60
2023-01-10T06:58:07.293Z,3.63
2023-01-10T07:00:37.835Z,2.85
2023-01-10T07:03:16.924Z,3.38
2023-01-10T07:05:55.598Z,3.08
2023-01-10T07:12:23.245Z,3.40
2023-01-10T07:15:06.096Z,3.33
2023-01-10T07:18:05.468Z,3.42
2023-01-10T07:20:51.218Z,3.28
2023-01-10T07:23:34.680Z,3.40
2023-01-10T07:26:26.584Z,3.60
2023-01-10T07:29:57.522Z,3.75
2023-01-10T07:31:55.037Z,4.10
2023-01-10T07:34:36.364Z,3.53
2023-01-10T07:37:09.975Z,4.05
2023-01-10T07:39:48.620Z,3.50
2023-01-10T07:42:20.606Z,3.83
2023-01-10T07:44:50.221Z,4.15
2023-01-10T07:47:41.367Z,3.75
2023-01-10T07:50:24.500Z,4.03
2023-01-10T07:53:15.101Z,3.78
2023-01-10T07:55:58.649Z,3.78
2023-01-10T07:58:33.036Z,3.80
2023-01-10T08:01:05.227Z,3.95
2023-01-10T08:03:35.492Z,3.30
2023-01-10T08:06:10.457Z,4.05
2023-01-10T08:08:45.557Z,4.07
2023-01-10T08:11:43.980Z,3.65
2023-01-10T08:14:15.886Z,3.72
2023-01-10T08:16:46.762Z,3.58
2023-01-10T08:19:21.105Z,4.32
2023-01-10T08:22:04.424Z,4.07
2023-01-10T08:24:43.349Z,3.85
2023-01-10T08:27:40.397Z,3.38
2023-01-10T08:30:14.758Z,3.47
2023-01-10T08:32:54.250Z,3.40
2023-01-10T08:35:24.732Z,3.05
2023-01-10T08:37:54.930Z,3.28
2023-01-10T08:41:16.999Z,3.42
2023-01-10T08:43:50.997Z,3.10
2023-01-10T08:46:30.444Z,3.60
2023-01-10T08:49:01.122Z,3.50
2023-01-10T08:51:34.497Z,3.65
2023-01-10T08:54:09.743Z,3.70
2023-01-10T08:57:35.848Z,3.35
2023-01-10T09:07:27.908Z,3.70
2023-01-10T09:13:44.699Z,3.70
2023-01-10T09:16:49.787Z,3.47
2023-01-10T09:19:44.984Z,4.68
2023-01-10T09:26:00.591Z,4.25
2023-01-10T09:29:49.287Z,4.63
2023-01-10T09:33:19.037Z,4.47
2023-01-10T09:36:41.999Z,4.90
2023-01-10T09:52:04.682Z,4.50
2023-01-10T09:54:42.902Z,5.15
2023-01-10T09:57:22.875Z,5.50
2023-01-10T10:00:05.446Z,4.95
2023-01-10T10:02:47.545Z,5.60
2023-01-10T10:06:11.213Z,5.82
2023-01-10T10:09:04.812Z,5.82
2023-01-10T10:11:58.970Z,5.95
2023-01-10T10:14:50.084Z,5.70
2023-01-10T10:17:45.036Z,6.32
2023-01-10T10:20:38.527Z,6.60
2023-01-10T10:23:39.477Z,5.97
2023-01-10T10:26:24.761Z,5.97
2023-01-10T10:29:16.507Z,5.70
2023-01-10T10:32:17.537Z,6.25
2023-01-10T10:35:11.827Z,6.03
2023-01-10T10:37:54.914Z,5.53
2023-01-10T10:40:48.879Z,5.65
2023-01-10T10:43:52.589Z,5.90
2023-01-10T10:46:41.289Z,5.25
2023-01-10T10:50:10.430Z,4.93
2023-01-10T10:53:22.921Z,5.63
2023-01-10T10:55:54.719Z,5.45
2023-01-10T10:59:19.316Z,5.30
2023-01-10T11:01:26.660Z,4.97
2023-01-10T11:04:28.887Z,5.10
2023-01-10T11:07:09.763Z,5.82
2023-01-10T11:10:10.759Z,5.70
2023-01-10T11:12:45.555Z,5.70
2023-01-10T11:16:10.458Z,5.53
2023-01-10T11:21:58.990Z,6.45
2023-01-10T11:25:36.089Z,5.70
2023-01-10T11:31:34.321Z,5.43
2023-01-10T11:37:29.498Z,5.40
2023-01-10T11:40:30.090Z,5.07
2023-01-10T11:43:23.357Z,5.38
2023-01-10T11:46:09.995Z,5.05
2023-01-10T11:49:23.310Z,5.45
2023-01-10T11:52:33.609Z,5.05
2023-01-10T11:55:20.343Z,4.60
2023-01-10T11:58:07.728Z,5.30
2023-01-10T12:00:58.992Z,4.78
2023-01-10T12:03:54.152Z,4.95
2023-01-10T12:06:28.500Z,5.18
2023-01-10T12:09:07.720Z,5.30
2023-01-10T12:12:13.515Z,4.88
2023-01-10T12:14:59.090Z,5.07
2023-01-10T12:17:31.871Z,5.35
2023-01-10T12:20:15.782Z,4.72
2023-01-10T12:23:45.741Z,5.32
2023-01-10T12:26:35.117Z,4.63
2023-01-10T12:29:17.426Z,5.15
2023-01-10T12:31:54.255Z,5.20
2023-01-10T12:34:37.322Z,5.50
2023-01-10T12:37:29.645Z,5.25
2023-01-10T12:40:29.458Z,4.78
2023-01-10T12:43:23.378Z,5.88
2023-01-10T12:46:41.032Z,5.18
2023-01-10T12:49:37.774Z,4.65
2023-01-10T12:52:34.375Z,4.93
2023-01-10T12:55:21.785Z,5.15
2023-01-10T12:58:25.752Z,5.00
2023-01-10T13:01:18.869Z,5.13
2023-01-10T13:04:33.842Z,4.95
2023-01-10T13:07:11.227Z,5.28
2023-01-10T13:09:52.136Z,4.80
2023-01-10T13:13:02.255Z,5.85
2023-01-10T13:16:10.150Z,5.30
2023-01-10T13:19:01.743Z,5.47
2023-01-10T13:21:36.978Z,5.03
2023-01-10T13:24:30.356Z,5.13
2023-01-10T13:27:30.314Z,5.00
2023-01-10T13:30:30.523Z,5.07
2023-01-10T13:33:25.783Z,5.15
2023-01-10T13:36:25.359Z,5.00
2023-01-10T13:39:13.666Z,4.97
2023-01-10T13:42:31.438Z,4.70
2023-01-10T13:45:34.787Z,5.10
2023-01-10T13:48:50.373Z,4.57
2023-01-10T13:51:29.861Z,4.57
2023-01-10T13:54:39.670Z,5.60
2023-01-10T13:57:48.216Z,4.60
2023-01-10T14:01:04.362Z,4.78
2023-01-10T14:04:09.487Z,5.03
2023-01-10T14:06:54.484Z,5.45
2023-01-10T14:10:09.163Z,5.30
2023-01-10T14:13:15.494Z,4.75
2023-01-10T14:16:22.907Z,4.82
2023-01-10T14:19:29.032Z,5.25
2023-01-10T14:22:53.596Z,5.05
2023-01-10T14:26:08.991Z,4.70
2023-01-10T14:29:14.955Z,5.22
2023-01-10T14:31:57.268Z,4.78
2023-01-10T14:34:40.410Z,5.00
2023-01-10T14:37:37.848Z,4.68
2023-01-10T14:40:28.450Z,4.28
2023-01-10T14:43:09.767Z,4.60
2023-01-10T14:45:56.752Z,5.00
2023-01-10T14:48:34.163Z,5.10
2023-01-10T14:51:25.819Z,5.13
2023-01-10T14:54:20.845Z,5.00
2023-01-10T14:56:53.117Z,4.97
2023-01-10T14:59:44.126Z,5.10
2023-01-10T15:02:21.140Z,4.43
2023-01-10T15:04:58.900Z,4.70
2023-01-10T15:07:40.656Z,4.53
2023-01-10T15:10:46.180Z,5.50
2023-01-10T15:13:45.040Z,4.75
2023-01-10T15:16:33.027Z,4.22
2023-01-10T15:19:15.966Z,4.38
2023-01-10T15:22:10.004Z,4.35
2023-01-10T15:28:16.630Z,4.88
2023-01-10T15:30:47.663Z,4.57
2023-01-10T15:33:23.570Z,4.53
2023-01-10T15:35:52.940Z,4.45
2023-01-10T15:38:27.397Z,4.47
2023-01-10T15:41:04.589Z,4.60
2023-01-10T15:43:34.442Z,4.95
2023-01-10T15:46:04.492Z,4.07
2023-01-10T15:48:38.670Z,4.72
2023-01-10T15:51:15.554Z,4.57
2023-01-10T15:54:13.012Z,4.40
2023-01-10T15:56:43.534Z,4.38
2023-01-10T15:59:25.136Z,4.70
2023-01-10T16:02:02.812Z,4.53
2023-01-10T16:04:35.377Z,4.53
2023-01-10T16:07:09.308Z,4.53
2023-01-10T16:09:39.686Z,4.00
2023-01-10T16:12:38.374Z,4.57
2023-01-10T16:15:17.218Z,3.83
2023-01-10T16:17:45.553Z,4.57
2023-01-10T16:20:36.499Z,4.20
2023-01-10T16:23:17.193Z,3.90
2023-01-10T16:26:11.847Z,4.00
2023-01-10T16:28:40.082Z,4.10
2023-01-10T16:31:15.700Z,3.83
2023-01-10T16:33:45.954Z,3.95
2023-01-10T16:36:18.518Z,3.95
2023-01-10T16:38:48.799Z,3.70
2023-01-10T16:41:34.806Z,4.07
2023-01-10T16:44:05.989Z,3.95
2023-01-10T16:46:34.434Z,4.07
2023-01-10T16:53:24.543Z,4.00
2023-01-10T16:56:33.892Z,3.70
2023-01-10T17:05:32.682Z,3.83
2023-01-10T17:08:09.189Z,4.45
2023-01-10T17:10:48.361Z,4.18
2023-01-10T17:13:26.332Z,4.25
2023-01-10T17:15:59.072Z,3.40
2023-01-10T17:18:33.464Z,3.63
2023-01-10T17:21:41.386Z,3.75
2023-01-10T17:24:34.737Z,3.40
2023-01-10T17:30:27.509Z,3.45
2023-01-10T17:32:58.899Z,3.90
2023-01-10T17:35:32.613Z,4.18
2023-01-10T17:38:05.561Z,3.35
2023-01-10T17:40:36.155Z,3.35
2023-01-10T17:43:06.069Z,3.65
2023-01-10T17:45:38.947Z,3.50
2023-01-10T17:48:11.834Z,3.22
2023-01-10T17:50:43.520Z,3.03
2023-01-10T17:53:15.138Z,3.20
2023-01-10T17:55:58.758Z,3.67
2023-01-10T17:58:40.573Z,3.20
2023-01-10T18:01:22.323Z,3.70
2023-01-10T18:03:56.563Z,3.40
2023-01-10T18:06:26.396Z,3.15
2023-01-10T18:29:31.287Z,2.92
2023-01-10T18:31:59.667Z,3.03
2023-01-10T18:34:50.567Z,2.55
2023-01-10T18:37:22.591Z,3.05
2023-01-10T18:40:23.241Z,2.92
2023-01-10T18:42:54.187Z,3.05
2023-01-10T18:48:32.584Z,2.83
2023-01-10T18:51:05.332Z,2.88
2023-01-10T18:53:43.796Z,3.10
2023-01-10T18:56:19.990Z,2.97
2023-01-10T18:58:53.070Z,3.28
2023-01-10T19:01:39.025Z,2.88
2023-01-10T19:04:34.043Z,2.78
2023-01-10T19:07:17.495Z,2.70
2023-01-10T19:09:54.508Z,2.85
2023-01-10T19:12:27.003Z,2.63
2023-01-10T19:15:00.915Z,3.13
2023-01-10T19:17:36.876Z,2.58
2023-01-10T19:20:38.822Z,3.00
2023-01-10T19:23:17.612Z,2.90
2023-01-10T19:26:20.991Z,2.65
2023-01-10T19:31:52.973Z,2.70
2023-01-10T19:34:28.519Z,3.13
2023-01-10T19:37:13.732Z,3.03
2023-01-10T19:39:49.756Z,2.85
2023-01-10T19:42:30.085Z,2.80
2023-01-10T19:45:21.857Z,2.75
2023-01-10T19:48:08.912Z,2.95
2023-01-10T19:50:54.801Z,2.88
2023-01-10T19:53:35.981Z,2.63
2023-01-10T19:56:35.756Z,2.85
2023-01-10T20:00:05.185Z,2.80
2023-01-10T20:02:39.215Z,2.50
2023-01-10T20:08:55.538Z,3.63
2023-01-10T20:11:48.347Z,3.13
2023-01-10T20:14:45.566Z,2.63
2023-01-10T20:17:33.754Z,2.78
2023-01-10T20:20:33.556Z,3.20
2023-01-10T20:23:34.487Z,2.90
2023-01-10T20:29:23.941Z,2.58
2023-01-10T20:32:04.043Z,3.00
2023-01-10T20:34:40.887Z,3.03
2023-01-10T20:38:19.565Z,2.63
2023-01-10T20:40:30.975Z,3.38
2023-01-10T20:43:41.929Z,3.10
2023-01-10T20:46:25.281Z,3.17
2023-01-10T20:49:06.263Z,2.40
2023-01-10T20:51:51.432Z,2.75
2023-01-10T20:54:27.793Z,2.97
2023-01-10T20:57:10.848Z,2.90
2023-01-10T21:03:03.390Z,2.97
2023-01-10T21:05:49.715Z,2.75
2023-01-10T21:08:35.609Z,2.97
2023-01-10T21:11:16.812Z,2.65
2023-01-10T21:13:52.622Z,2.85
2023-01-10T21:16:48.151Z,2.78
2023-01-10T21:19:33.265Z,3.13
2023-01-10T21:22:37.732Z,2.50
2023-01-10T21:25:19.312Z,2.50
2023-01-10T21:28:38.971Z,2.47
2023-01-10T21:31:26.842Z,2.70
2023-01-10T21:34:24.857Z,2.80
2023-01-10T21:37:20.747Z,2.63
2023-01-10T21:43:20.357Z,2.83
2023-01-10T21:46:04.030Z,2.20
2023-01-10T21:48:45.411Z,2.70
2023-01-10T21:51:26.054Z,2.65
2023-01-10T21:54:38.392Z,2.28
2023-01-10T22:00:38.616Z,2.55
2023-01-10T22:03:45.769Z,2.30
2023-01-10T22:06:48.559Z,3.22
2023-01-10T22:09:46.175Z,2.28
2023-01-10T22:12:34.380Z,2.35
2023-01-10T22:16:12.445Z,2.20
2023-01-10T22:19:20.967Z,2.30
2023-01-10T22:21:58.086Z,2.58
2023-01-10T22:24:49.387Z,2.30
2023-01-10T22:27:59.671Z,2.20
2023-01-10T22:30:34.529Z,2.75
2023-01-10T22:33:23.517Z,2.40
2023-01-10T22:36:10.360Z,2.25
2023-01-10T22:39:08.352Z,2.38
2023-01-10T22:42:01.417Z,2.20
2023-01-10T22:44:35.773Z,2.17
2023-01-10T22:47:20.685Z,2.20
2023-01-10T22:49:58.189Z,2.20
2023-01-10T22:52:57.573Z,2.10
2023-01-10T22:55:54.988Z,2.45
2023-01-10T22:58:40.820Z,2.15
2023-01-10T23:01:21.064Z,2.03
2023-01-10T23:04:13.684Z,2.42
2023-01-10T23:06:56.089Z,2.55
2023-01-10T23:09:32.810Z,2.00
2023-01-10T23:12:20.679Z,2.42
2023-01-10T23:15:02.982Z,2.33
2023-01-10T23:17:37.401Z,2.20
2023-01-10T23:20:24.823Z,2.35
2023-01-10T23:22:54.848Z,2.17
2023-01-10T23:25:39.289Z,2.00
2023-01-10T23:28:23.884Z,2.10
2023-01-10T23:31:29.617Z,2.05
2023-01-10T23:34:13.689Z,1.98
2023-01-10T23:37:01.215Z,2.17
2023-01-10T23:39:57.686Z,2.13
2023-01-10T23:42:39.872Z,1.90
2023-01-10T23:45:48.146Z,2.08
2023-01-10T23:49:51.044Z,2.10
2023-01-10T23:55:54.019Z,2.10
2023-01-10T23:58:55.086Z,2.00
